createdAt,value
2019-03-16T00:00:34.906Z,3.35
2019-03-16T00:03:03.799Z,2.80
2019-03-16T00:05:32.596Z,2.50
2019-03-16T00:08:01.548Z,3.20
2019-03-16T00:10:30.421Z,2.60
2019-03-16T00:12:59.348Z,2.92
2019-03-16T00:15:28.223Z,3.08
2019-03-16T00:17:57.157Z,3.00
2019-03-16T00:20:25.927Z,2.22
2019-03-16T00:22:54.726Z,2.80
2019-03-16T00:25:23.524Z,3.65
2019-03-16T00:27:52.474Z,3.02
2019-03-16T00:30:21.337Z,2.30
2019-03-16T00:32:50.150Z,2.47
2019-03-16T00:35:19.095Z,3.07
2019-03-16T00:37:48.005Z,3.27
2019-03-16T00:40:17.043Z,3.40
2019-03-16T00:42:46.193Z,3.60
2019-03-16T00:45:14.969Z,2.90
2019-03-16T00:47:43.931Z,3.15
2019-03-16T00:50:12.830Z,3.70
2019-03-16T00:52:41.719Z,2.90
2019-03-16T00:55:10.873Z,3.52
2019-03-16T00:57:39.790Z,3.10
2019-03-16T01:00:09.780Z,3.10
2019-03-16T01:02:38.568Z,2.58
2019-03-16T01:05:08.239Z,2.47
2019-03-16T01:07:37.138Z,3.37
2019-03-16T01:10:06.658Z,3.70
2019-03-16T01:12:35.474Z,2.63
2019-03-16T01:15:04.537Z,2.75
2019-03-16T01:17:33.363Z,4.05
2019-03-16T01:20:02.162Z,3.57
2019-03-16T01:22:30.997Z,3.00
2019-03-16T01:24:59.856Z,3.90
2019-03-16T01:27:28.662Z,3.70
2019-03-16T01:29:57.491Z,3.10
2019-03-16T01:32:39.768Z,3.40
2019-03-16T01:34:56.883Z,3.45
2019-03-16T01:37:25.672Z,3.50
2019-03-16T01:39:54.453Z,3.37
2019-03-16T01:42:23.256Z,3.58
2019-03-16T01:44:52.081Z,3.62
2019-03-16T01:47:20.933Z,3.70
2019-03-16T01:49:49.717Z,4.20
2019-03-16T01:52:18.507Z,3.40
2019-03-16T01:54:47.353Z,3.30
2019-03-16T01:57:16.171Z,3.67
2019-03-16T01:59:44.990Z,4.40
2019-03-16T02:02:13.743Z,3.47
2019-03-16T02:04:43.385Z,3.47
2019-03-16T02:07:12.202Z,4.07
2019-03-16T02:09:41.069Z,3.70
2019-03-16T02:12:09.853Z,3.25
2019-03-16T02:14:38.750Z,3.70
2019-03-16T02:17:07.539Z,3.50
2019-03-16T02:19:36.287Z,2.90
2019-03-16T02:22:05.304Z,3.20
2019-03-16T02:24:34.087Z,3.77
2019-03-16T02:27:02.885Z,3.50
2019-03-16T02:29:31.620Z,3.40
2019-03-16T02:32:00.405Z,3.50
2019-03-16T02:34:29.218Z,3.70
2019-03-16T02:36:58.021Z,3.83
2019-03-16T02:39:26.833Z,3.37
2019-03-16T02:41:55.761Z,3.75
2019-03-16T02:44:24.535Z,4.20
2019-03-16T02:46:53.332Z,3.02
2019-03-16T02:49:22.094Z,3.37
2019-03-16T02:51:50.940Z,3.65
2019-03-16T02:54:19.721Z,4.17
2019-03-16T02:56:48.495Z,3.33
2019-03-16T02:59:17.420Z,4.15
2019-03-16T03:01:46.195Z,3.37
2019-03-16T03:04:15.070Z,3.80
2019-03-16T03:06:43.832Z,4.30
2019-03-16T03:09:12.604Z,4.15
2019-03-16T03:11:41.626Z,4.10
2019-03-16T03:14:10.441Z,3.80
2019-03-16T03:16:39.229Z,3.60
2019-03-16T03:19:08.012Z,3.60
2019-03-16T03:21:36.829Z,3.17
2019-03-16T03:24:05.631Z,3.62
2019-03-16T03:26:34.559Z,3.58
2019-03-16T03:29:03.353Z,4.22
2019-03-16T03:31:32.103Z,4.25
2019-03-16T03:34:02.754Z,3.85
2019-03-16T03:36:31.501Z,4.00
2019-03-16T03:39:00.451Z,3.67
2019-03-16T03:41:29.227Z,4.17
2019-03-16T03:43:58.196Z,3.92
2019-03-16T03:46:27.046Z,4.67
2019-03-16T03:48:55.885Z,3.20
2019-03-16T03:51:24.676Z,3.37
2019-03-16T03:53:53.433Z,3.27
2019-03-16T03:56:22.289Z,3.37
2019-03-16T03:58:51.279Z,3.75
2019-03-16T04:01:20.088Z,2.83
2019-03-16T04:03:49.090Z,2.45
2019-03-16T04:06:18.117Z,3.30
2019-03-16T04:08:47.108Z,3.58
2019-03-16T04:11:15.972Z,4.12
2019-03-16T04:13:44.837Z,3.47
2019-03-16T04:16:13.608Z,3.37
2019-03-16T04:18:42.443Z,4.60
2019-03-16T04:21:11.624Z,4.08
2019-03-16T04:23:40.410Z,3.05
2019-03-16T04:26:09.437Z,4.58
2019-03-16T04:28:38.240Z,3.75
2019-03-16T04:31:07.104Z,3.67
2019-03-16T04:33:35.888Z,3.90
2019-03-16T04:36:04.752Z,3.98
2019-03-16T04:38:33.523Z,4.10
2019-03-16T04:41:02.360Z,3.95
2019-03-16T04:43:31.200Z,3.90
2019-03-16T04:46:00.017Z,4.00
2019-03-16T04:48:28.851Z,3.05
2019-03-16T04:50:57.705Z,3.37
2019-03-16T04:53:26.532Z,4.58
2019-03-16T04:55:55.380Z,4.17
2019-03-16T04:58:24.223Z,5.10
2019-03-16T05:00:52.975Z,4.15
2019-03-16T05:03:21.824Z,4.67
2019-03-16T05:05:50.636Z,3.83
2019-03-16T05:08:19.426Z,4.03
2019-03-16T05:10:48.249Z,3.87
2019-03-16T05:13:17.068Z,4.40
2019-03-16T05:15:45.868Z,3.30
2019-03-16T05:18:14.689Z,3.80
2019-03-16T05:20:43.497Z,3.77
2019-03-16T05:23:12.248Z,3.37
2019-03-16T05:25:41.045Z,4.17
2019-03-16T05:28:09.829Z,3.92
2019-03-16T05:30:38.661Z,4.35
2019-03-16T05:33:07.555Z,4.60
2019-03-16T05:35:36.469Z,3.60
2019-03-16T05:38:05.335Z,4.00
2019-03-16T05:40:34.154Z,3.57
2019-03-16T05:43:02.916Z,3.52
2019-03-16T05:45:31.779Z,3.55
2019-03-16T05:48:00.595Z,4.80
2019-03-16T05:50:30.631Z,2.77
2019-03-16T05:52:59.428Z,4.25
2019-03-16T05:55:28.196Z,3.90
2019-03-16T05:57:57.019Z,3.22
2019-03-16T06:00:25.815Z,3.98
2019-03-16T06:02:54.683Z,4.87
2019-03-16T06:05:23.454Z,3.98
2019-03-16T06:07:52.256Z,4.08
2019-03-16T06:10:21.132Z,5.17
2019-03-16T06:12:49.973Z,4.10
2019-03-16T06:15:18.815Z,4.33
2019-03-16T06:17:47.635Z,3.50
2019-03-16T06:20:16.420Z,3.17
2019-03-16T06:22:45.226Z,4.90
2019-03-16T06:25:14.078Z,3.60
2019-03-16T06:27:42.936Z,3.05
2019-03-16T06:30:11.907Z,3.00
2019-03-16T06:32:40.706Z,3.85
2019-03-16T06:35:23.380Z,3.75
2019-03-16T06:37:40.225Z,3.95
2019-03-16T06:40:09.178Z,3.87
2019-03-16T06:42:37.952Z,4.45
2019-03-16T06:45:09.835Z,4.40
2019-03-16T06:47:38.668Z,3.80
2019-03-16T06:50:08.694Z,4.30
2019-03-16T06:52:37.485Z,4.70
2019-03-16T06:55:06.338Z,4.10
2019-03-16T06:57:35.203Z,3.85
2019-03-16T07:00:04.353Z,4.57
2019-03-16T07:02:33.146Z,4.00
2019-03-16T07:05:01.982Z,4.12
2019-03-16T07:07:30.785Z,3.80
2019-03-16T07:09:59.657Z,4.65
2019-03-16T07:12:28.420Z,4.60
2019-03-16T07:14:57.224Z,4.08
2019-03-16T07:17:29.064Z,3.72
2019-03-16T07:19:57.872Z,3.72
2019-03-16T07:22:26.746Z,3.77
2019-03-16T07:24:55.574Z,4.47
2019-03-16T07:27:26.487Z,3.55
2019-03-16T07:29:57.107Z,3.33
2019-03-16T07:32:25.915Z,4.12
2019-03-16T07:34:54.766Z,3.65
2019-03-16T07:37:23.645Z,4.92
2019-03-16T07:39:52.503Z,4.45
2019-03-16T07:42:25.708Z,4.20
2019-03-16T07:45:07.274Z,4.78
2019-03-16T07:47:25.352Z,3.87
2019-03-16T07:49:54.486Z,4.08
2019-03-16T07:52:25.494Z,3.70
2019-03-16T07:54:55.254Z,4.40
2019-03-16T07:57:25.427Z,4.37
2019-03-16T07:59:54.285Z,4.05
2019-03-16T08:02:23.175Z,4.05
2019-03-16T08:04:53.245Z,5.42
2019-03-16T08:07:23.245Z,4.15
2019-03-16T08:09:52.087Z,4.00
2019-03-16T08:12:22.036Z,3.80
2019-03-16T08:14:52.792Z,4.20
2019-03-16T08:17:23.183Z,4.10
2019-03-16T08:19:54.345Z,4.15
2019-03-16T08:59:16.060Z,4.67
2019-03-16T09:01:54.001Z,4.30
2019-03-16T09:04:29.276Z,4.37
2019-03-16T09:07:05.241Z,4.50
2019-03-16T09:09:36.642Z,4.00
2019-03-16T09:12:09.448Z,4.20
2019-03-16T09:14:45.250Z,3.45
2019-03-16T09:17:43.327Z,3.60
2019-03-16T09:20:20.401Z,2.95
2019-03-16T09:23:00.305Z,3.77
2019-03-16T09:25:40.458Z,3.33
2019-03-16T09:28:29.665Z,3.90
2019-03-16T09:31:11.434Z,4.40
2019-03-16T09:33:54.152Z,2.92
2019-03-16T09:36:43.731Z,3.70
2019-03-16T09:39:38.331Z,4.10
2019-03-16T09:42:39.116Z,4.03
2019-03-16T09:45:08.826Z,4.20
2019-03-16T09:47:37.863Z,4.53
2019-03-16T09:50:07.659Z,4.10
2019-03-16T09:52:36.480Z,4.08
2019-03-16T09:55:05.720Z,3.85
2019-03-16T09:57:34.594Z,3.60
2019-03-16T10:00:03.665Z,3.22
2019-03-16T10:02:32.684Z,2.90
2019-03-16T10:05:01.619Z,4.10
2019-03-16T10:07:30.407Z,3.40
2019-03-16T10:10:00.044Z,4.22
2019-03-16T10:12:30.039Z,3.45
2019-03-16T10:14:59.852Z,4.22
2019-03-16T10:17:29.886Z,3.62
2019-03-16T10:20:01.173Z,3.70
2019-03-16T10:22:29.978Z,2.72
2019-03-16T10:24:59.036Z,3.50
2019-03-16T10:27:27.902Z,3.75
2019-03-16T10:29:56.854Z,3.22
2019-03-16T10:32:25.765Z,3.47
2019-03-16T10:34:54.707Z,3.52
2019-03-16T10:37:24.834Z,3.60
2019-03-16T10:39:53.649Z,3.90
2019-03-16T10:42:22.709Z,2.95
2019-03-16T10:44:51.835Z,3.12
2019-03-16T10:47:20.770Z,3.00
2019-03-16T10:49:49.698Z,3.05
2019-03-16T10:52:18.589Z,2.55
2019-03-16T10:54:47.594Z,3.10
2019-03-16T10:57:16.502Z,3.35
2019-03-16T10:59:49.692Z,3.00
2019-03-16T11:02:18.523Z,3.90
2019-03-16T11:04:47.338Z,2.65
2019-03-16T11:07:16.253Z,3.30
2019-03-16T11:09:45.103Z,2.80
2019-03-16T11:12:14.141Z,3.15
2019-03-16T11:14:42.993Z,2.90
2019-03-16T11:17:11.854Z,2.90
2019-03-16T11:19:40.668Z,2.83
2019-03-16T11:22:09.762Z,3.45
2019-03-16T11:24:40.349Z,2.98
2019-03-16T11:27:09.187Z,3.15
2019-03-16T11:29:38.028Z,2.70
2019-03-16T11:32:06.864Z,2.90
2019-03-16T11:34:35.712Z,2.62
2019-03-16T11:37:04.731Z,2.35
2019-03-16T11:39:33.660Z,2.50
2019-03-16T11:42:02.465Z,2.25
2019-03-16T11:44:31.304Z,1.70
2019-03-16T11:47:00.214Z,2.10
2019-03-16T11:49:29.070Z,1.80
2019-03-16T11:51:57.866Z,1.62
2019-03-16T11:54:26.741Z,1.53
2019-03-16T11:56:55.642Z,1.80
2019-03-16T11:59:24.560Z,2.17
2019-03-16T12:02:04.848Z,1.83
2019-03-16T12:04:23.980Z,2.50
2019-03-16T12:06:52.783Z,1.60
2019-03-16T12:09:21.654Z,1.90
2019-03-16T12:11:50.430Z,1.92
2019-03-16T12:14:19.230Z,2.40
2019-03-16T12:16:48.082Z,1.60
2019-03-16T12:19:17.012Z,1.90
2019-03-16T12:21:46.040Z,2.10
2019-03-16T12:24:20.122Z,2.87
2019-03-16T12:26:49.080Z,2.67
2019-03-16T12:29:17.946Z,2.72
2019-03-16T12:31:46.987Z,3.20
2019-03-16T12:34:15.741Z,3.20
2019-03-16T12:36:44.518Z,3.10
2019-03-16T12:39:19.292Z,2.60
2019-03-16T12:41:48.082Z,2.92
2019-03-16T12:44:16.961Z,2.80
2019-03-16T12:46:45.921Z,2.85
2019-03-16T12:49:14.743Z,2.90
2019-03-16T12:51:43.601Z,2.70
2019-03-16T12:54:12.625Z,2.92
2019-03-16T12:56:41.509Z,3.60
2019-03-16T12:59:11.137Z,3.25
2019-03-16T13:01:40.101Z,3.60
2019-03-16T13:04:08.975Z,4.40
2019-03-16T13:06:37.782Z,4.28
2019-03-16T13:09:08.200Z,4.78
2019-03-16T13:11:37.131Z,4.25
2019-03-16T13:14:06.118Z,4.60
2019-03-16T13:16:37.207Z,3.95
2019-03-16T13:19:05.632Z,4.60
2019-03-16T13:21:34.487Z,4.78
2019-03-16T13:24:03.249Z,4.47
2019-03-16T13:26:32.121Z,4.80
2019-03-16T13:29:00.896Z,3.80
2019-03-16T13:31:29.773Z,4.08
2019-03-16T13:33:58.621Z,2.15
2019-03-16T13:36:27.395Z,2.75
2019-03-16T13:38:56.561Z,1.87
2019-03-16T13:41:25.477Z,1.90
2019-03-16T13:43:54.466Z,1.80
2019-03-16T13:46:23.348Z,1.62
2019-03-16T13:48:52.316Z,2.10
2019-03-16T13:51:21.433Z,2.35
2019-03-16T13:53:50.217Z,2.37
2019-03-16T13:56:19.094Z,1.80
2019-03-16T13:58:48.314Z,1.80
2019-03-16T14:01:17.281Z,2.00
2019-03-16T14:03:46.127Z,2.10
2019-03-16T14:06:15.223Z,1.75
2019-03-16T14:08:44.207Z,2.20
2019-03-16T14:11:13.117Z,2.10
2019-03-16T14:13:42.336Z,1.80
2019-03-16T14:16:11.637Z,2.20
2019-03-16T14:18:40.470Z,2.00
2019-03-16T14:21:09.343Z,2.10
2019-03-16T14:23:38.212Z,2.20
2019-03-16T14:26:07.067Z,2.10
2019-03-16T14:28:37.704Z,2.50
2019-03-16T14:31:06.652Z,1.98
2019-03-16T14:33:35.489Z,4.28
2019-03-16T14:36:04.702Z,2.20
2019-03-16T14:38:33.646Z,2.72
2019-03-16T14:41:02.526Z,3.40
2019-03-16T14:43:31.390Z,2.70
2019-03-16T14:46:00.370Z,2.50
2019-03-16T14:48:29.719Z,4.08
2019-03-16T14:50:58.589Z,5.50
2019-03-16T14:53:27.440Z,3.90
2019-03-16T14:55:56.543Z,3.40
2019-03-16T14:58:25.469Z,4.20
2019-03-16T15:00:54.296Z,3.30
2019-03-16T15:03:23.137Z,5.20
2019-03-16T15:05:52.000Z,4.42
2019-03-16T15:08:20.869Z,4.83
2019-03-16T15:10:49.742Z,5.42
2019-03-16T15:13:18.547Z,5.00
2019-03-16T15:15:47.426Z,4.05
2019-03-16T15:18:16.300Z,4.20
2019-03-16T15:20:45.142Z,4.60
2019-03-16T15:23:14.137Z,4.25
2019-03-16T15:25:43.089Z,3.67
2019-03-16T15:28:11.834Z,3.90
2019-03-16T15:30:50.068Z,6.45
2019-03-16T15:33:11.487Z,3.52
2019-03-16T15:35:40.311Z,5.03
2019-03-16T15:38:09.119Z,4.20
2019-03-16T15:40:38.437Z,4.17
2019-03-16T15:43:07.517Z,3.60
2019-03-16T15:45:36.514Z,4.30
2019-03-16T15:48:05.306Z,4.20
2019-03-16T15:50:34.168Z,3.80
2019-03-16T15:53:03.241Z,5.10
2019-03-16T15:55:32.136Z,5.03
2019-03-16T15:58:07.987Z,4.30
2019-03-16T16:00:31.605Z,5.12
2019-03-16T16:03:00.631Z,5.65
2019-03-16T16:05:29.470Z,5.40
2019-03-16T16:07:58.385Z,5.78
2019-03-16T16:10:27.309Z,3.90
2019-03-16T16:12:56.198Z,6.15
2019-03-16T16:15:25.199Z,5.50
2019-03-16T16:17:54.085Z,5.95
2019-03-16T16:20:23.028Z,6.37
2019-03-16T16:22:51.980Z,6.70
2019-03-16T16:25:20.921Z,6.17
2019-03-16T16:27:49.852Z,5.12
2019-03-16T16:30:18.712Z,6.35
2019-03-16T16:32:47.576Z,7.28
2019-03-16T16:35:16.493Z,7.33
2019-03-16T16:37:45.444Z,6.90
2019-03-16T16:40:14.497Z,6.20
2019-03-16T16:42:43.437Z,8.73
2019-03-16T16:45:13.967Z,6.10
2019-03-16T16:47:43.030Z,8.30
2019-03-16T16:50:15.647Z,7.55
2019-03-16T16:52:44.508Z,8.88
2019-03-16T16:55:13.672Z,8.53
2019-03-16T16:57:42.603Z,8.80
2019-03-16T17:00:16.028Z,8.73
2019-03-16T17:02:45.166Z,9.00
2019-03-16T17:05:18.174Z,8.63
2019-03-16T17:07:47.326Z,10.10
2019-03-16T17:10:16.329Z,9.45
2019-03-16T17:12:45.431Z,9.58
2019-03-16T17:15:14.476Z,9.80
2019-03-16T17:17:43.426Z,10.60
2019-03-16T17:20:12.882Z,9.23
2019-03-16T17:22:41.837Z,9.10
2019-03-16T17:25:11.422Z,11.20
2019-03-16T17:27:40.434Z,9.17
2019-03-16T17:30:13.415Z,11.10
2019-03-16T17:32:44.378Z,10.80
2019-03-16T17:35:16.595Z,11.73
2019-03-16T17:37:45.735Z,12.18
2019-03-16T17:40:17.408Z,13.72
2019-03-16T17:42:46.467Z,11.88
2019-03-16T17:45:15.733Z,13.50
2019-03-16T17:47:44.875Z,14.43
2019-03-16T17:50:14.124Z,15.25
2019-03-16T17:52:43.398Z,13.72
2019-03-16T17:55:12.783Z,14.97
2019-03-16T17:57:45.433Z,14.28
2019-03-16T18:00:15.411Z,14.28
2019-03-16T18:02:51.198Z,15.50
2019-03-16T18:05:18.725Z,15.70
2019-03-16T18:07:47.669Z,16.85
2019-03-16T18:10:16.979Z,16.17
2019-03-16T18:12:45.830Z,16.05
2019-03-16T18:15:14.696Z,16.82
2019-03-16T18:17:43.627Z,17.17
2019-03-16T18:20:13.075Z,18.17
2019-03-16T18:22:41.941Z,19.20
2019-03-16T18:25:11.390Z,19.95
2019-03-16T18:27:40.395Z,18.10
2019-03-16T18:30:13.636Z,20.80
2019-03-16T18:32:42.667Z,20.72
2019-03-16T18:35:11.627Z,19.87
2019-03-16T18:37:40.696Z,21.42
2019-03-16T18:40:10.710Z,20.17
2019-03-16T18:42:39.484Z,20.50
2019-03-16T18:45:11.547Z,20.50
2019-03-16T18:47:40.413Z,20.97
2019-03-16T18:50:09.581Z,21.30
2019-03-16T18:52:38.455Z,23.70
2019-03-16T18:55:08.188Z,23.80
2019-03-16T18:57:37.330Z,23.05
2019-03-16T19:00:06.491Z,20.00
2019-03-16T19:02:35.381Z,20.60
2019-03-16T19:05:04.688Z,20.82
2019-03-16T19:07:33.641Z,20.37
2019-03-16T19:10:02.583Z,19.37
2019-03-16T19:12:31.409Z,18.62
2019-03-16T19:15:00.382Z,19.32
2019-03-16T19:17:31.313Z,20.30
2019-03-16T19:20:00.341Z,19.17
2019-03-16T19:22:29.285Z,19.00
2019-03-16T19:24:58.240Z,19.57
2019-03-16T19:27:27.227Z,19.62
2019-03-16T19:29:56.149Z,18.00
2019-03-16T19:32:33.698Z,18.37
2019-03-16T19:34:55.789Z,19.90
2019-03-16T19:37:24.665Z,18.65
2019-03-16T19:39:53.536Z,17.67
2019-03-16T19:42:22.518Z,19.45
2019-03-16T19:44:51.392Z,19.30
2019-03-16T19:47:20.194Z,19.45
2019-03-16T19:49:49.148Z,18.75
2019-03-16T19:52:17.948Z,17.15
2019-03-16T19:54:46.824Z,18.00
2019-03-16T19:57:16.481Z,15.98
2019-03-16T19:59:45.662Z,16.10
2019-03-16T20:02:14.585Z,16.65
2019-03-16T20:04:43.671Z,15.43
2019-03-16T20:07:19.103Z,16.95
2019-03-16T20:09:43.354Z,15.35
2019-03-16T20:12:12.343Z,13.78
2019-03-16T20:14:41.188Z,14.50
2019-03-16T20:17:10.042Z,15.23
2019-03-16T20:19:39.036Z,17.85
2019-03-16T20:22:07.840Z,13.78
2019-03-16T20:24:36.672Z,14.30
2019-03-16T20:27:06.228Z,15.32
2019-03-16T20:29:35.232Z,14.45
2019-03-16T20:32:04.246Z,13.50
2019-03-16T20:34:33.160Z,14.60
2019-03-16T20:37:01.992Z,14.47
2019-03-16T20:39:30.988Z,12.90
2019-03-16T20:41:59.982Z,13.15
2019-03-16T20:44:28.940Z,12.58
2019-03-16T20:46:57.763Z,12.80
2019-03-16T20:49:29.490Z,13.28
2019-03-16T20:51:58.485Z,11.60
2019-03-16T20:54:27.480Z,12.05
2019-03-16T20:56:56.376Z,11.75
2019-03-16T20:59:25.225Z,10.48
2019-03-16T21:01:54.210Z,10.82
2019-03-16T21:04:28.567Z,10.72
2019-03-16T21:06:57.519Z,10.90
2019-03-16T21:09:26.489Z,10.95
2019-03-16T21:11:55.457Z,11.30
2019-03-16T21:14:24.299Z,9.93
2019-03-16T21:16:53.144Z,10.58
2019-03-16T21:19:21.916Z,8.70
2019-03-16T21:21:50.838Z,9.15
2019-03-16T21:24:19.730Z,8.35
2019-03-16T21:26:52.858Z,8.00
2019-03-16T21:29:19.334Z,7.55
2019-03-16T21:31:48.211Z,6.30
2019-03-16T21:34:17.191Z,6.03
2019-03-16T21:36:45.993Z,5.90
2019-03-16T21:39:17.016Z,5.70
2019-03-16T21:41:45.400Z,5.00
2019-03-16T21:44:14.274Z,5.67
2019-03-16T21:46:43.976Z,5.72
2019-03-16T21:49:13.035Z,5.40
2019-03-16T21:51:41.972Z,5.10
2019-03-16T21:54:10.849Z,4.70
2019-03-16T21:56:39.755Z,4.90
2019-03-16T21:59:08.669Z,4.40
2019-03-16T22:01:37.453Z,4.00
2019-03-16T22:04:06.493Z,3.92
2019-03-16T22:06:35.486Z,3.50
2019-03-16T22:09:06.129Z,3.35
2019-03-16T22:11:34.991Z,3.40
2019-03-16T22:14:03.968Z,4.25
2019-03-16T22:16:32.868Z,4.22
2019-03-16T22:19:01.799Z,3.98
2019-03-16T22:21:30.631Z,3.50
2019-03-16T22:23:59.845Z,3.40
2019-03-16T22:26:28.796Z,3.47
2019-03-16T22:28:57.709Z,3.15
2019-03-16T22:31:26.619Z,3.70
2019-03-16T22:33:55.796Z,3.60
2019-03-16T22:36:24.687Z,3.35
2019-03-16T22:38:53.469Z,2.87
2019-03-16T22:41:22.295Z,3.47
2019-03-16T22:43:51.480Z,3.30
2019-03-16T22:46:20.261Z,3.00
2019-03-16T22:48:49.278Z,3.10
2019-03-16T22:51:18.076Z,2.80
2019-03-16T22:53:46.929Z,3.45
2019-03-16T22:56:15.978Z,2.70
2019-03-16T22:58:45.034Z,3.25
2019-03-16T23:01:14.049Z,3.10
2019-03-16T23:03:43.087Z,3.08
2019-03-16T23:06:11.884Z,2.90
2019-03-16T23:08:40.717Z,4.17
2019-03-16T23:11:09.569Z,3.35
2019-03-16T23:13:38.475Z,3.37
2019-03-16T23:16:07.222Z,3.20
2019-03-16T23:18:35.994Z,3.00
2019-03-16T23:21:04.847Z,3.30
2019-03-16T23:23:33.727Z,3.40
2019-03-16T23:26:02.975Z,3.77
2019-03-16T23:28:31.951Z,3.30
2019-03-16T23:31:00.914Z,4.00
2019-03-16T23:33:29.691Z,3.20
2019-03-16T23:35:58.626Z,3.80
2019-03-16T23:38:27.580Z,3.90
2019-03-16T23:40:56.401Z,3.70
2019-03-16T23:43:25.210Z,3.47
2019-03-16T23:45:54.089Z,3.72
2019-03-16T23:48:23.091Z,3.80
2019-03-16T23:50:51.905Z,3.70
2019-03-16T23:53:20.740Z,3.50
2019-03-16T23:55:49.558Z,4.30
2019-03-16T23:58:18.419Z,4.22
